Ceres, United Kingdom
Current Conditions -  °F | °C
As of 1:50 PM on Saturday 22 Nov 2014 (Local Time) from EGQL Reporting Station
Scattered Clouds Scattered Clouds  
Wind Chill: 55°   Ceiling: Unl
Heat Index: 55°   Visibility: 6mi
Dew Point: 50°   Wind: 5mph
Humidity: 82%   Direction: 240°WSW
Pressure: 29.74"   Gusts: NA
Location:  56.29°N, 2.97°W
Report Text: EGQL 221350Z 24004KT 9999 FEW020 SCT026 13/10 Q1007 BLU
Loading
Personal Weather Stations






























Interactive Weather Map New forecast layout! Learn more

10-Day Weather Forecast

Advertisements
Track Severe Weather on mobile